sensor_id;sensor_type;location;lat;lon;timestamp;pressure;altitude;pressure_sealevel;temperature;humidity
63306;BME280;50735;52.060;1.248;2023-05-15T00:00:28;101366.19;;;14.56;51.80
63306;BME280;50735;52.060;1.248;2023-05-15T00:03:00;101361.38;;;14.31;51.83
63306;BME280;50735;52.060;1.248;2023-05-15T00:05:32;101355.94;;;14.11;51.68
63306;BME280;50735;52.060;1.248;2023-05-15T00:08:04;101351.98;;;14.49;51.81
63306;BME280;50735;52.060;1.248;2023-05-15T00:10:36;101347.55;;;14.52;52.09
63306;BME280;50735;52.060;1.248;2023-05-15T00:13:08;101343.71;;;14.51;51.73
63306;BME280;50735;52.060;1.248;2023-05-15T00:15:40;101342.77;;;14.50;51.68
63306;BME280;50735;52.060;1.248;2023-05-15T00:18:11;101338.94;;;14.48;51.75
63306;BME280;50735;52.060;1.248;2023-05-15T00:20:43;101335.15;;;14.30;51.74
63306;BME280;50735;52.060;1.248;2023-05-15T00:23:15;101333.63;;;14.28;52.36
63306;BME280;50735;52.060;1.248;2023-05-15T00:25:47;101330.93;;;14.42;52.25
63306;BME280;50735;52.060;1.248;2023-05-15T00:28:19;101330.38;;;14.40;52.02
63306;BME280;50735;52.060;1.248;2023-05-15T00:30:50;101330.67;;;14.42;52.29
63306;BME280;50735;52.060;1.248;2023-05-15T00:33:23;101325.33;;;14.40;51.96
63306;BME280;50735;52.060;1.248;2023-05-15T00:35:55;101324.06;;;14.41;51.96
63306;BME280;50735;52.060;1.248;2023-05-15T00:38:26;101322.82;;;14.42;51.94
63306;BME280;50735;52.060;1.248;2023-05-15T00:40:58;101319.12;;;14.46;52.12
63306;BME280;50735;52.060;1.248;2023-05-15T00:43:32;101314.82;;;14.69;52.02
63306;BME280;50735;52.060;1.248;2023-05-15T00:46:06;101314.40;;;14.45;52.32
63306;BME280;50735;52.060;1.248;2023-05-15T00:48:39;101314.75;;;14.45;52.69
63306;BME280;50735;52.060;1.248;2023-05-15T00:51:12;101313.74;;;14.40;52.43
63306;BME280;50735;52.060;1.248;2023-05-15T00:53:44;101317.19;;;14.30;52.64
63306;BME280;50735;52.060;1.248;2023-05-15T00:56:16;101314.67;;;14.28;52.45
63306;BME280;50735;52.060;1.248;2023-05-15T00:58:49;101313.46;;;14.26;52.44
63306;BME280;50735;52.060;1.248;2023-05-15T01:01:21;101312.26;;;14.26;52.28
63306;BME280;50735;52.060;1.248;2023-05-15T01:03:52;101312.90;;;14.19;52.39
63306;BME280;50735;52.060;1.248;2023-05-15T01:06:24;101311.95;;;14.20;52.28
63306;BME280;50735;52.060;1.248;2023-05-15T01:08:58;101311.77;;;14.20;52.26
63306;BME280;50735;52.060;1.248;2023-05-15T01:11:31;101313.09;;;14.20;52.14
63306;BME280;50735;52.060;1.248;2023-05-15T01:14:06;101311.48;;;14.38;52.15
63306;BME280;50735;52.060;1.248;2023-05-15T01:16:38;101312.90;;;14.14;52.15
63306;BME280;50735;52.060;1.248;2023-05-15T01:19:10;101313.02;;;14.37;52.16
63306;BME280;50735;52.060;1.248;2023-05-15T01:22:53;101314.15;;;14.07;52.30
63306;BME280;50735;52.060;1.248;2023-05-15T01:25:45;101319.17;;;14.25;52.23
63306;BME280;50735;52.060;1.248;2023-05-15T01:28:24;101317.72;;;13.88;52.57
63306;BME280;50735;52.060;1.248;2023-05-15T01:31:04;101316.95;;;14.03;52.97
63306;BME280;50735;52.060;1.248;2023-05-15T01:33:42;101320.01;;;13.81;52.70
63306;BME280;50735;52.060;1.248;2023-05-15T01:36:20;101316.74;;;13.78;52.79
63306;BME280;50735;52.060;1.248;2023-05-15T01:38:56;101314.79;;;13.90;52.91
63306;BME280;50735;52.060;1.248;2023-05-15T01:41:35;101314.12;;;13.89;52.77
63306;BME280;50735;52.060;1.248;2023-05-15T01:44:16;101312.93;;;14.01;52.88
63306;BME280;50735;52.060;1.248;2023-05-15T01:46:50;101312.53;;;13.82;52.86
63306;BME280;50735;52.060;1.248;2023-05-15T01:49:26;101315.56;;;13.79;52.91
63306;BME280;50735;52.060;1.248;2023-05-15T01:52:00;101316.88;;;13.77;52.72
63306;BME280;50735;52.060;1.248;2023-05-15T01:54:36;101320.54;;;13.51;53.34
63306;BME280;50735;52.060;1.248;2023-05-15T01:57:09;101321.20;;;13.24;53.32
63306;BME280;50735;52.060;1.248;2023-05-15T01:59:40;101326.34;;;13.70;53.03
63306;BME280;50735;52.060;1.248;2023-05-15T02:02:13;101328.90;;;13.23;53.35
63306;BME280;50735;52.060;1.248;2023-05-15T02:04:46;101328.10;;;13.58;53.32
63306;BME280;50735;52.060;1.248;2023-05-15T02:07:19;101326.92;;;13.54;53.56
63306;BME280;50735;52.060;1.248;2023-05-15T02:09:52;101328.50;;;13.47;53.90
63306;BME280;50735;52.060;1.248;2023-05-15T02:12:25;101331.38;;;13.51;53.63
63306;BME280;50735;52.060;1.248;2023-05-15T02:14:57;101334.26;;;13.16;53.43
63306;BME280;50735;52.060;1.248;2023-05-15T02:17:29;101336.35;;;13.59;53.62
63306;BME280;50735;52.060;1.248;2023-05-15T02:20:01;101340.40;;;13.58;53.54
63306;BME280;50735;52.060;1.248;2023-05-15T02:22:34;101338.30;;;13.66;53.39
63306;BME280;50735;52.060;1.248;2023-05-15T02:25:06;101339.93;;;13.68;53.46
63306;BME280;50735;52.060;1.248;2023-05-15T02:27:43;101338.45;;;13.63;53.35
63306;BME280;50735;52.060;1.248;2023-05-15T02:30:26;101336.97;;;13.49;53.25
63306;BME280;50735;52.060;1.248;2023-05-15T02:33:09;101337.02;;;13.67;53.31
63306;BME280;50735;52.060;1.248;2023-05-15T02:35:47;101339.22;;;13.71;53.08
63306;BME280;50735;52.060;1.248;2023-05-15T02:38:26;101343.66;;;13.68;53.12
63306;BME280;50735;52.060;1.248;2023-05-15T02:41:00;101345.26;;;13.31;52.99
63306;BME280;50735;52.060;1.248;2023-05-15T02:43:34;101345.92;;;13.68;53.07
63306;BME280;50735;52.060;1.248;2023-05-15T02:46:07;101346.42;;;13.70;52.85
63306;BME280;50735;52.060;1.248;2023-05-15T02:48:40;101350.29;;;13.70;52.85
63306;BME280;50735;52.060;1.248;2023-05-15T02:51:13;101354.83;;;13.71;52.93
63306;BME280;50735;52.060;1.248;2023-05-15T02:53:46;101353.59;;;13.47;52.78
63306;BME280;50735;52.060;1.248;2023-05-15T02:56:18;101355.51;;;13.51;53.00
63306;BME280;50735;52.060;1.248;2023-05-15T02:58:50;101355.08;;;13.07;53.05
63306;BME280;50735;52.060;1.248;2023-05-15T03:01:22;101355.94;;;13.46;53.16
63306;BME280;50735;52.060;1.248;2023-05-15T03:03:53;101353.64;;;13.48;53.02
63306;BME280;50735;52.060;1.248;2023-05-15T03:06:26;101350.22;;;13.45;53.05
63306;BME280;50735;52.060;1.248;2023-05-15T03:08:58;101349.56;;;13.30;52.87
63306;BME280;50735;52.060;1.248;2023-05-15T03:11:29;101346.63;;;13.32;53.01
63306;BME280;50735;52.060;1.248;2023-05-15T03:14:01;101343.74;;;13.35;52.95
63306;BME280;50735;52.060;1.248;2023-05-15T03:16:32;101342.89;;;13.21;53.32
63306;BME280;50735;52.060;1.248;2023-05-15T03:19:04;101348.61;;;12.61;53.42
63306;BME280;50735;52.060;1.248;2023-05-15T03:21:37;101348.18;;;12.98;53.38
63306;BME280;50735;52.060;1.248;2023-05-15T03:24:08;101352.36;;;13.02;53.32
63306;BME280;50735;52.060;1.248;2023-05-15T03:26:40;101352.34;;;13.16;53.06
63306;BME280;50735;52.060;1.248;2023-05-15T03:29:12;101347.68;;;13.06;53.13
63306;BME280;50735;52.060;1.248;2023-05-15T03:31:44;101345.70;;;12.96;53.21
63306;BME280;50735;52.060;1.248;2023-05-15T03:34:15;101348.85;;;12.87;53.60
63306;BME280;50735;52.060;1.248;2023-05-15T03:36:47;101345.72;;;12.92;53.32
63306;BME280;50735;52.060;1.248;2023-05-15T03:39:19;101344.31;;;12.89;53.78
63306;BME280;50735;52.060;1.248;2023-05-15T03:41:51;101338.32;;;12.76;54.96
63306;BME280;50735;52.060;1.248;2023-05-15T03:44:23;101336.09;;;12.72;55.20
63306;BME280;50735;52.060;1.248;2023-05-15T03:46:54;101339.09;;;12.61;55.64
63306;BME280;50735;52.060;1.248;2023-05-15T03:49:27;101346.37;;;12.88;55.56
63306;BME280;50735;52.060;1.248;2023-05-15T03:51:59;101351.84;;;12.82;55.04
63306;BME280;50735;52.060;1.248;2023-05-15T03:54:31;101352.91;;;12.82;55.37
63306;BME280;50735;52.060;1.248;2023-05-15T03:57:03;101355.07;;;13.12;55.00
63306;BME280;50735;52.060;1.248;2023-05-15T03:59:35;101350.90;;;12.91;55.04
63306;BME280;50735;52.060;1.248;2023-05-15T04:02:07;101354.79;;;12.89;55.32
63306;BME280;50735;52.060;1.248;2023-05-15T04:04:39;101352.74;;;12.92;55.29
63306;BME280;50735;52.060;1.248;2023-05-15T04:07:10;101355.83;;;12.99;55.23
63306;BME280;50735;52.060;1.248;2023-05-15T04:09:42;101358.43;;;13.01;55.31
63306;BME280;50735;52.060;1.248;2023-05-15T04:12:15;101360.06;;;13.08;55.14
63306;BME280;50735;52.060;1.248;2023-05-15T04:14:46;101356.43;;;13.00;55.94
63306;BME280;50735;52.060;1.248;2023-05-15T04:17:18;101354.75;;;13.03;55.72
63306;BME280;50735;52.060;1.248;2023-05-15T04:19:50;101353.54;;;13.02;55.61
63306;BME280;50735;52.060;1.248;2023-05-15T04:22:21;101350.75;;;12.82;56.48
63306;BME280;50735;52.060;1.248;2023-05-15T04:24:53;101348.89;;;12.85;56.28
63306;BME280;50735;52.060;1.248;2023-05-15T04:27:25;101349.05;;;12.87;55.88
63306;BME280;50735;52.060;1.248;2023-05-15T04:29:56;101353.00;;;13.13;55.88
63306;BME280;50735;52.060;1.248;2023-05-15T04:32:29;101355.21;;;12.79;56.17
63306;BME280;50735;52.060;1.248;2023-05-15T04:35:00;101359.60;;;12.79;56.00
63306;BME280;50735;52.060;1.248;2023-05-15T04:37:32;101364.99;;;12.74;56.25
63306;BME280;50735;52.060;1.248;2023-05-15T04:40:05;101366.48;;;12.63;56.32
63306;BME280;50735;52.060;1.248;2023-05-15T04:42:37;101365.99;;;12.52;56.58
63306;BME280;50735;52.060;1.248;2023-05-15T04:45:08;101363.17;;;12.55;56.19
63306;BME280;50735;52.060;1.248;2023-05-15T04:47:40;101365.75;;;12.52;56.12
63306;BME280;50735;52.060;1.248;2023-05-15T04:50:12;101367.09;;;12.76;55.87
63306;BME280;50735;52.060;1.248;2023-05-15T04:52:43;101368.69;;;12.41;56.14
63306;BME280;50735;52.060;1.248;2023-05-15T04:55:15;101373.04;;;12.40;56.11
63306;BME280;50735;52.060;1.248;2023-05-15T04:57:47;101370.95;;;12.55;56.43
63306;BME280;50735;52.060;1.248;2023-05-15T05:00:19;101370.39;;;12.31;56.30
63306;BME280;50735;52.060;1.248;2023-05-15T05:02:51;101374.74;;;12.30;56.38
63306;BME280;50735;52.060;1.248;2023-05-15T05:05:23;101375.87;;;12.38;55.92
63306;BME280;50735;52.060;1.248;2023-05-15T05:07:55;101373.52;;;12.76;56.08
63306;BME280;50735;52.060;1.248;2023-05-15T05:10:27;101373.94;;;12.49;56.27
63306;BME280;50735;52.060;1.248;2023-05-15T05:12:59;101369.69;;;12.38;56.08
63306;BME280;50735;52.060;1.248;2023-05-15T05:15:31;101371.74;;;12.31;55.87
63306;BME280;50735;52.060;1.248;2023-05-15T05:18:03;101375.04;;;12.41;55.77
63306;BME280;50735;52.060;1.248;2023-05-15T05:20:35;101384.62;;;12.55;55.72
63306;BME280;50735;52.060;1.248;2023-05-15T05:23:07;101388.76;;;12.54;55.46
63306;BME280;50735;52.060;1.248;2023-05-15T05:25:38;101397.97;;;12.46;54.99
63306;BME280;50735;52.060;1.248;2023-05-15T05:28:10;101402.41;;;12.64;55.84
63306;BME280;50735;52.060;1.248;2023-05-15T05:30:43;101408.27;;;12.20;55.49
63306;BME280;50735;52.060;1.248;2023-05-15T05:33:15;101410.91;;;12.34;55.48
63306;BME280;50735;52.060;1.248;2023-05-15T05:35:47;101412.53;;;12.60;55.07
63306;BME280;50735;52.060;1.248;2023-05-15T05:38:19;101414.81;;;12.55;54.77
63306;BME280;50735;52.060;1.248;2023-05-15T05:40:51;101415.97;;;12.14;57.18
63306;BME280;50735;52.060;1.248;2023-05-15T05:43:24;101418.90;;;12.12;53.29
63306;BME280;50735;52.060;1.248;2023-05-15T05:45:56;101421.40;;;11.71;52.65
63306;BME280;50735;52.060;1.248;2023-05-15T05:48:28;101418.10;;;11.83;52.80
63306;BME280;50735;52.060;1.248;2023-05-15T05:51:00;101418.70;;;12.04;52.47
63306;BME280;50735;52.060;1.248;2023-05-15T05:53:32;101423.03;;;11.94;52.55
63306;BME280;50735;52.060;1.248;2023-05-15T05:56:04;101428.46;;;12.53;52.31
63306;BME280;50735;52.060;1.248;2023-05-15T05:58:36;101432.39;;;12.16;52.47
63306;BME280;50735;52.060;1.248;2023-05-15T06:01:07;101433.92;;;12.58;52.16
63306;BME280;50735;52.060;1.248;2023-05-15T06:03:41;101433.89;;;12.42;52.35
63306;BME280;50735;52.060;1.248;2023-05-15T06:06:13;101438.03;;;12.30;51.97
63306;BME280;50735;52.060;1.248;2023-05-15T06:08:44;101443.03;;;12.66;51.82
63306;BME280;50735;52.060;1.248;2023-05-15T06:11:16;101447.44;;;12.23;51.39
63306;BME280;50735;52.060;1.248;2023-05-15T06:13:48;101452.18;;;12.09;50.18
63306;BME280;50735;52.060;1.248;2023-05-15T06:16:20;101458.78;;;12.08;49.82
63306;BME280;50735;52.060;1.248;2023-05-15T06:18:52;101455.89;;;12.46;49.73
63306;BME280;50735;52.060;1.248;2023-05-15T06:21:24;101455.24;;;11.95;49.20
63306;BME280;50735;52.060;1.248;2023-05-15T06:23:57;101463.23;;;12.14;49.59
63306;BME280;50735;52.060;1.248;2023-05-15T06:26:29;101461.70;;;12.10;49.35
63306;BME280;50735;52.060;1.248;2023-05-15T06:29:01;101465.63;;;12.30;49.34
63306;BME280;50735;52.060;1.248;2023-05-15T06:31:32;101466.64;;;12.29;48.92
63306;BME280;50735;52.060;1.248;2023-05-15T06:34:04;101466.57;;;12.17;48.54
63306;BME280;50735;52.060;1.248;2023-05-15T06:36:36;101466.58;;;12.22;47.73
63306;BME280;50735;52.060;1.248;2023-05-15T06:39:08;101469.35;;;11.84;47.25
63306;BME280;50735;52.060;1.248;2023-05-15T06:41:39;101476.49;;;12.29;47.19
63306;BME280;50735;52.060;1.248;2023-05-15T06:44:11;101471.50;;;11.94;46.94
63306;BME280;50735;52.060;1.248;2023-05-15T06:46:43;101477.57;;;11.76;46.84
63306;BME280;50735;52.060;1.248;2023-05-15T06:49:15;101480.16;;;11.87;46.76
63306;BME280;50735;52.060;1.248;2023-05-15T06:51:47;101481.60;;;12.06;46.92
63306;BME280;50735;52.060;1.248;2023-05-15T06:54:18;101483.72;;;11.80;46.39
63306;BME280;50735;52.060;1.248;2023-05-15T06:56:50;101477.61;;;11.81;46.69
63306;BME280;50735;52.060;1.248;2023-05-15T06:59:22;101481.55;;;11.87;46.31
63306;BME280;50735;52.060;1.248;2023-05-15T07:01:54;101484.13;;;12.39;45.86
63306;BME280;50735;52.060;1.248;2023-05-15T07:04:25;101484.48;;;12.22;51.98
63306;BME280;50735;52.060;1.248;2023-05-15T07:06:57;101487.57;;;12.53;46.42
63306;BME280;50735;52.060;1.248;2023-05-15T07:09:29;101489.13;;;12.11;45.32
63306;BME280;50735;52.060;1.248;2023-05-15T07:12:00;101492.48;;;12.26;44.86
63306;BME280;50735;52.060;1.248;2023-05-15T07:14:32;101491.86;;;12.31;45.60
63306;BME280;50735;52.060;1.248;2023-05-15T07:17:04;101493.06;;;12.26;45.66
63306;BME280;50735;52.060;1.248;2023-05-15T07:19:36;101497.81;;;12.52;45.62
63306;BME280;50735;52.060;1.248;2023-05-15T07:22:08;101493.04;;;12.47;45.20
63306;BME280;50735;52.060;1.248;2023-05-15T07:24:39;101494.57;;;12.16;44.94
63306;BME280;50735;52.060;1.248;2023-05-15T07:27:11;101491.54;;;12.55;45.14
63306;BME280;50735;52.060;1.248;2023-05-15T07:29:43;101489.89;;;12.63;44.92
63306;BME280;50735;52.060;1.248;2023-05-15T07:32:15;101490.97;;;12.57;45.08
63306;BME280;50735;52.060;1.248;2023-05-15T07:34:47;101488.92;;;12.75;44.69
63306;BME280;50735;52.060;1.248;2023-05-15T07:37:18;101495.87;;;12.84;43.73
63306;BME280;50735;52.060;1.248;2023-05-15T07:39:50;101494.62;;;12.69;43.59
63306;BME280;50735;52.060;1.248;2023-05-15T07:42:22;101496.05;;;12.95;43.83
63306;BME280;50735;52.060;1.248;2023-05-15T07:44:53;101495.57;;;12.98;43.42
63306;BME280;50735;52.060;1.248;2023-05-15T07:47:25;101500.14;;;13.07;42.33
63306;BME280;50735;52.060;1.248;2023-05-15T07:49:57;101506.85;;;13.07;42.35
63306;BME280;50735;52.060;1.248;2023-05-15T07:52:29;101511.00;;;13.33;41.82
63306;BME280;50735;52.060;1.248;2023-05-15T07:55:01;101509.07;;;13.13;42.60
63306;BME280;50735;52.060;1.248;2023-05-15T07:57:32;101509.16;;;13.47;42.19
63306;BME280;50735;52.060;1.248;2023-05-15T08:00:05;101509.66;;;13.44;42.94
63306;BME280;50735;52.060;1.248;2023-05-15T08:02:38;101511.13;;;13.55;39.44
63306;BME280;50735;52.060;1.248;2023-05-15T08:05:09;101515.63;;;13.64;39.07
63306;BME280;50735;52.060;1.248;2023-05-15T08:07:41;101520.46;;;14.08;38.88
63306;BME280;50735;52.060;1.248;2023-05-15T08:10:13;101517.10;;;14.22;38.90
63306;BME280;50735;52.060;1.248;2023-05-15T08:12:44;101516.39;;;14.10;39.31
63306;BME280;50735;52.060;1.248;2023-05-15T08:15:16;101517.37;;;14.35;36.59
63306;BME280;50735;52.060;1.248;2023-05-15T08:17:48;101521.62;;;14.76;36.41
63306;BME280;50735;52.060;1.248;2023-05-15T08:20:20;101518.90;;;14.06;36.10
63306;BME280;50735;52.060;1.248;2023-05-15T08:22:52;101522.72;;;13.97;36.82
63306;BME280;50735;52.060;1.248;2023-05-15T08:25:23;101518.49;;;14.32;36.99
63306;BME280;50735;52.060;1.248;2023-05-15T08:27:55;101518.50;;;14.30;36.33
63306;BME280;50735;52.060;1.248;2023-05-15T08:30:27;101520.67;;;13.98;37.25
63306;BME280;50735;52.060;1.248;2023-05-15T08:32:59;101524.15;;;14.08;36.56
63306;BME280;50735;52.060;1.248;2023-05-15T08:35:30;101519.82;;;13.71;35.78
63306;BME280;50735;52.060;1.248;2023-05-15T08:38:02;101519.12;;;14.04;35.17
63306;BME280;50735;52.060;1.248;2023-05-15T08:40:34;101518.84;;;14.21;34.50
63306;BME280;50735;52.060;1.248;2023-05-15T08:43:11;101521.10;;;14.23;34.24
63306;BME280;50735;52.060;1.248;2023-05-15T08:45:44;101525.88;;;14.91;34.12
63306;BME280;50735;52.060;1.248;2023-05-15T08:48:16;101523.27;;;14.84;34.43
63306;BME280;50735;52.060;1.248;2023-05-15T08:50:48;101525.22;;;15.36;34.20
63306;BME280;50735;52.060;1.248;2023-05-15T08:53:21;101528.08;;;15.33;33.34
63306;BME280;50735;52.060;1.248;2023-05-15T08:55:53;101531.31;;;15.75;32.59
63306;BME280;50735;52.060;1.248;2023-05-15T08:58:26;101528.70;;;15.98;31.55
63306;BME280;50735;52.060;1.248;2023-05-15T09:00:59;101529.43;;;15.62;31.54
63306;BME280;50735;52.060;1.248;2023-05-15T09:03:31;101532.46;;;15.97;31.47
63306;BME280;50735;52.060;1.248;2023-05-15T09:06:04;101536.46;;;15.95;31.88
63306;BME280;50735;52.060;1.248;2023-05-15T09:08:36;101538.91;;;16.66;32.31
63306;BME280;50735;52.060;1.248;2023-05-15T09:11:09;101538.56;;;16.39;31.64
63306;BME280;50735;52.060;1.248;2023-05-15T09:13:41;101537.76;;;16.43;32.23
63306;BME280;50735;52.060;1.248;2023-05-15T09:16:13;101543.72;;;16.74;30.45
63306;BME280;50735;52.060;1.248;2023-05-15T09:18:45;101545.31;;;16.53;30.70
63306;BME280;50735;52.060;1.248;2023-05-15T09:21:21;101533.67;;;17.21;30.27
63306;BME280;50735;52.060;1.248;2023-05-15T09:23:54;101542.41;;;17.23;31.16
63306;BME280;50735;52.060;1.248;2023-05-15T09:26:26;101539.96;;;17.79;30.25
63306;BME280;50735;52.060;1.248;2023-05-15T09:29:01;101534.03;;;18.21;29.72
63306;BME280;50735;52.060;1.248;2023-05-15T09:31:33;101535.09;;;18.21;30.26
63306;BME280;50735;52.060;1.248;2023-05-15T09:34:06;101540.11;;;17.64;30.68
63306;BME280;50735;52.060;1.248;2023-05-15T09:36:41;101541.62;;;17.93;30.25
63306;BME280;50735;52.060;1.248;2023-05-15T09:39:21;101541.33;;;18.20;29.45
63306;BME280;50735;52.060;1.248;2023-05-15T09:41:53;101545.36;;;18.08;29.95
63306;BME280;50735;52.060;1.248;2023-05-15T09:44:40;101542.11;;;18.15;30.19
63306;BME280;50735;52.060;1.248;2023-05-15T09:47:13;101545.07;;;18.15;30.28
63306;BME280;50735;52.060;1.248;2023-05-15T09:49:45;101552.37;;;18.46;30.64
63306;BME280;50735;52.060;1.248;2023-05-15T09:52:17;101555.16;;;18.41;29.81
63306;BME280;50735;52.060;1.248;2023-05-15T09:54:49;101545.37;;;17.95;30.03
63306;BME280;50735;52.060;1.248;2023-05-15T09:57:21;101548.58;;;17.81;30.67
63306;BME280;50735;52.060;1.248;2023-05-15T09:59:52;101555.91;;;17.96;30.38
63306;BME280;50735;52.060;1.248;2023-05-15T10:02:26;101552.62;;;17.96;29.84
63306;BME280;50735;52.060;1.248;2023-05-15T10:04:58;101560.85;;;18.14;31.06
63306;BME280;50735;52.060;1.248;2023-05-15T10:07:31;101558.99;;;17.60;31.09
63306;BME280;50735;52.060;1.248;2023-05-15T10:10:04;101567.13;;;17.57;33.87
63306;BME280;50735;52.060;1.248;2023-05-15T10:12:36;101572.49;;;16.81;31.47
63306;BME280;50735;52.060;1.248;2023-05-15T10:15:08;101561.60;;;17.78;29.90
63306;BME280;50735;52.060;1.248;2023-05-15T10:17:43;101564.47;;;17.92;28.89
63306;BME280;50735;52.060;1.248;2023-05-15T10:20:16;101562.12;;;17.45;29.72
63306;BME280;50735;52.060;1.248;2023-05-15T10:22:50;101558.00;;;17.87;29.04
63306;BME280;50735;52.060;1.248;2023-05-15T10:25:29;101559.77;;;18.29;29.28
63306;BME280;50735;52.060;1.248;2023-05-15T10:28:06;101557.52;;;18.61;28.52
63306;BME280;50735;52.060;1.248;2023-05-15T10:30:39;101562.20;;;18.58;28.70
63306;BME280;50735;52.060;1.248;2023-05-15T10:33:12;101569.03;;;19.03;27.85
63306;BME280;50735;52.060;1.248;2023-05-15T10:35:46;101563.45;;;18.71;29.14
63306;BME280;50735;52.060;1.248;2023-05-15T10:38:20;101562.69;;;18.04;29.86
63306;BME280;50735;52.060;1.248;2023-05-15T10:40:54;101566.21;;;18.30;30.26
63306;BME280;50735;52.060;1.248;2023-05-15T10:43:27;101567.69;;;17.20;30.95
63306;BME280;50735;52.060;1.248;2023-05-15T10:46:01;101571.16;;;17.00;31.47
63306;BME280;50735;52.060;1.248;2023-05-15T10:48:34;101571.52;;;17.00;31.77
63306;BME280;50735;52.060;1.248;2023-05-15T10:51:13;101573.43;;;16.66;33.12
63306;BME280;50735;52.060;1.248;2023-05-15T10:53:46;101580.27;;;16.94;32.64
63306;BME280;50735;52.060;1.248;2023-05-15T10:56:17;101581.45;;;16.97;33.48
63306;BME280;50735;52.060;1.248;2023-05-15T10:58:50;101570.62;;;17.17;33.36
63306;BME280;50735;52.060;1.248;2023-05-15T11:01:25;101571.53;;;17.39;32.57
63306;BME280;50735;52.060;1.248;2023-05-15T11:04:06;101569.22;;;17.45;32.47
63306;BME280;50735;52.060;1.248;2023-05-15T11:06:39;101571.56;;;17.22;32.62
63306;BME280;50735;52.060;1.248;2023-05-15T11:09:44;101573.65;;;16.80;33.79
63306;BME280;50735;52.060;1.248;2023-05-15T11:12:15;101577.52;;;16.74;34.97
63306;BME280;50735;52.060;1.248;2023-05-15T11:15:17;101580.66;;;16.83;35.26
63306;BME280;50735;52.060;1.248;2023-05-15T11:18:05;101584.49;;;16.83;34.77
63306;BME280;50735;52.060;1.248;2023-05-15T11:20:40;101585.46;;;16.85;35.02
63306;BME280;50735;52.060;1.248;2023-05-15T11:23:12;101583.45;;;16.78;34.55
63306;BME280;50735;52.060;1.248;2023-05-15T11:25:51;101592.41;;;17.39;34.77
63306;BME280;50735;52.060;1.248;2023-05-15T11:28:24;101587.21;;;16.99;34.70
63306;BME280;50735;52.060;1.248;2023-05-15T11:30:58;101590.00;;;17.49;34.77
63306;BME280;50735;52.060;1.248;2023-05-15T11:33:31;101591.15;;;17.67;32.46
63306;BME280;50735;52.060;1.248;2023-05-15T11:36:04;101595.71;;;17.59;32.09
63306;BME280;50735;52.060;1.248;2023-05-15T11:38:38;101603.11;;;17.18;33.20
63306;BME280;50735;52.060;1.248;2023-05-15T11:41:19;101610.28;;;16.37;35.04
63306;BME280;50735;52.060;1.248;2023-05-15T11:43:51;101611.99;;;17.00;34.58
63306;BME280;50735;52.060;1.248;2023-05-15T11:46:23;101617.00;;;16.76;35.60
63306;BME280;50735;52.060;1.248;2023-05-15T11:48:55;101626.01;;;16.64;35.84
63306;BME280;50735;52.060;1.248;2023-05-15T11:51:27;101624.36;;;15.58;37.93
63306;BME280;50735;52.060;1.248;2023-05-15T11:54:01;101624.98;;;15.24;38.42
63306;BME280;50735;52.060;1.248;2023-05-15T11:56:34;101632.10;;;15.62;36.90
63306;BME280;50735;52.060;1.248;2023-05-15T11:59:06;101639.66;;;14.58;38.25
63306;BME280;50735;52.060;1.248;2023-05-15T12:01:41;101635.90;;;14.58;38.14
63306;BME280;50735;52.060;1.248;2023-05-15T12:04:14;101634.86;;;14.73;38.26
63306;BME280;50735;52.060;1.248;2023-05-15T12:06:47;101633.86;;;15.30;37.49
63306;BME280;50735;52.060;1.248;2023-05-15T12:09:19;101635.18;;;15.26;36.20
63306;BME280;50735;52.060;1.248;2023-05-15T12:11:51;101636.78;;;15.54;36.39
63306;BME280;50735;52.060;1.248;2023-05-15T12:14:26;101643.82;;;15.60;36.84
63306;BME280;50735;52.060;1.248;2023-05-15T12:16:59;101643.60;;;15.86;36.85
63306;BME280;50735;52.060;1.248;2023-05-15T12:19:32;101642.57;;;15.65;37.03
63306;BME280;50735;52.060;1.248;2023-05-15T12:22:05;101649.00;;;15.89;36.74
63306;BME280;50735;52.060;1.248;2023-05-15T12:24:37;101652.63;;;15.32;37.14
63306;BME280;50735;52.060;1.248;2023-05-15T12:27:09;101648.05;;;15.00;38.02
63306;BME280;50735;52.060;1.248;2023-05-15T12:29:41;101659.90;;;15.26;38.00
63306;BME280;50735;52.060;1.248;2023-05-15T12:32:13;101661.26;;;14.85;37.74
63306;BME280;50735;52.060;1.248;2023-05-15T12:34:45;101662.27;;;15.22;37.95
63306;BME280;50735;52.060;1.248;2023-05-15T12:37:18;101671.46;;;14.18;38.23
63306;BME280;50735;52.060;1.248;2023-05-15T12:39:52;101674.45;;;14.74;38.71
63306;BME280;50735;52.060;1.248;2023-05-15T12:42:25;101668.69;;;13.88;39.05
63306;BME280;50735;52.060;1.248;2023-05-15T12:44:56;101685.30;;;13.62;40.19
63306;BME280;50735;52.060;1.248;2023-05-15T12:47:28;101680.79;;;13.55;39.86
63306;BME280;50735;52.060;1.248;2023-05-15T12:50:01;101684.40;;;13.15;39.66
63306;BME280;50735;52.060;1.248;2023-05-15T12:52:32;101681.16;;;14.06;39.21
63306;BME280;50735;52.060;1.248;2023-05-15T12:55:05;101682.53;;;14.23;38.92
63306;BME280;50735;52.060;1.248;2023-05-15T12:57:37;101688.08;;;14.61;37.89
63306;BME280;50735;52.060;1.248;2023-05-15T13:00:10;101689.23;;;14.90;37.90
63306;BME280;50735;52.060;1.248;2023-05-15T13:02:43;101696.04;;;15.20;37.51
63306;BME280;50735;52.060;1.248;2023-05-15T13:05:15;101698.16;;;15.32;38.04
63306;BME280;50735;52.060;1.248;2023-05-15T13:07:47;101704.69;;;14.42;38.95
63306;BME280;50735;52.060;1.248;2023-05-15T13:10:20;101706.41;;;13.71;40.23
63306;BME280;50735;52.060;1.248;2023-05-15T13:12:54;101707.81;;;14.12;40.02
63306;BME280;50735;52.060;1.248;2023-05-15T13:15:29;101712.58;;;13.91;40.05
63306;BME280;50735;52.060;1.248;2023-05-15T13:18:02;101711.60;;;13.78;40.13
63306;BME280;50735;52.060;1.248;2023-05-15T13:20:36;101712.47;;;14.40;39.01